Harsens Island, Michigan
Current Conditions -  °F | °C
As of 4:58 AM on Tuesday 21 Oct 2014 (Local Time) from KMTC Reporting Station
Overcast Overcast  
Wind Chill: 45°   Ceiling: 1600
Heat Index: 48°   Visibility: 10mi
Dew Point: 47°   Wind: 7mph
Humidity: 97%   Direction: 310°NW
Pressure: 29.87"   Gusts: NA
Location:  42.6°N, 82.59°W
Report Text: KMTC 210858Z AUTO 31006KT 10SM OVC016 09/09 A2987 RMK AO2 SLP120 60000 T00910086 52006 $
Loading
Personal Weather Stations






























Interactive Weather Map
Tropical Storm Tracking
New forecast layout! Learn more

10-Day Weather Forecast

Advertisements
Track Severe Weather on mobile